Chicago, Illinois
Traffic Map
Current Weather Conditions
Chicago, Illinois
Broken Clouds Light Snow
Broken Clouds
15°
Feels Like: 1°
Wind Chill: Ceiling: 8000
Heat Index: 15° Visibility: 10mi
Dew Point: Wind: 14mph
Humidity: 64% Direction: 310° (NW)
Pressure: 29.95in Gusts: 0mph
Raw Report DataKMDW 100453Z 31012KT 10SM -SN FEW021 BKN080 M09/M15 A2995 RMK AO2 SLP160 P0000 T10941150
Traffic Incident Summary
Active as of:
Severity:
Category:
InformationThere was an issue retrieving the traffic information for this location. Please try a different location or try again shortly.
Advertisements
Track Severe Weather on mobile